New London, Ohio
Current Conditions -  °F | °C
As of 2:52 PM on Thursday 30 Oct 2014 (Local Time) from KMFD Reporting Station
Overcast Overcast  
Wind Chill: 45°   Ceiling: 3800
Heat Index: 48°   Visibility: 10mi
Dew Point: 33°   Wind: 6mph
Humidity: 56%   Direction: 280°W
Pressure: 30.08"   Gusts: NA
Location:  41.09°N, 82.4°W
Report Text: KMFD 301852Z 28005KT 10SM OVC038 09/01 A3008 RMK AO2 SLP194 T00890006
Loading
Personal Weather Stations






























Interactive Weather Map
Tropical Storm Tracking
New forecast layout! Learn more

10-Day Weather Forecast

Advertisements
Track Severe Weather on mobile